sensor_id;sensor_type;location;lat;lon;timestamp;temperature;humidity
67890;DHT22;54685;52.082;5.426;2023-04-24T00:00:19;9.30;99.90
67890;DHT22;54685;52.082;5.426;2023-04-24T00:02:47;9.30;99.90
67890;DHT22;54685;52.082;5.426;2023-04-24T00:05:17;9.30;99.90
67890;DHT22;54685;52.082;5.426;2023-04-24T00:07:45;9.30;99.90
67890;DHT22;54685;52.082;5.426;2023-04-24T00:10:12;9.40;99.90
67890;DHT22;54685;52.082;5.426;2023-04-24T00:12:39;9.30;99.90
67890;DHT22;54685;52.082;5.426;2023-04-24T00:15:06;9.40;99.90
67890;DHT22;54685;52.082;5.426;2023-04-24T00:17:34;9.40;99.90
67890;DHT22;54685;52.082;5.426;2023-04-24T00:20:01;9.40;99.90
67890;DHT22;54685;52.082;5.426;2023-04-24T00:22:32;9.40;99.90
67890;DHT22;54685;52.082;5.426;2023-04-24T00:24:59;9.40;99.90
67890;DHT22;54685;52.082;5.426;2023-04-24T00:27:26;9.40;99.90
67890;DHT22;54685;52.082;5.426;2023-04-24T00:29:53;9.40;99.90
67890;DHT22;54685;52.082;5.426;2023-04-24T00:32:20;9.40;99.90
67890;DHT22;54685;52.082;5.426;2023-04-24T00:34:47;9.30;99.90
67890;DHT22;54685;52.082;5.426;2023-04-24T00:37:15;9.30;99.90
67890;DHT22;54685;52.082;5.426;2023-04-24T00:39:43;9.30;99.90
67890;DHT22;54685;52.082;5.426;2023-04-24T00:42:11;9.30;99.90
67890;DHT22;54685;52.082;5.426;2023-04-24T00:44:39;9.30;99.90
67890;DHT22;54685;52.082;5.426;2023-04-24T00:47:07;9.30;99.90
67890;DHT22;54685;52.082;5.426;2023-04-24T00:50:08;9.30;99.90
67890;DHT22;54685;52.082;5.426;2023-04-24T00:53:00;9.30;99.90
67890;DHT22;54685;52.082;5.426;2023-04-24T00:55:53;9.30;99.90
67890;DHT22;54685;52.082;5.426;2023-04-24T00:58:20;9.30;99.90
67890;DHT22;54685;52.082;5.426;2023-04-24T01:00:49;9.30;99.90
67890;DHT22;54685;52.082;5.426;2023-04-24T01:03:24;9.30;99.90
67890;DHT22;54685;52.082;5.426;2023-04-24T01:05:54;9.30;99.90
67890;DHT22;54685;52.082;5.426;2023-04-24T01:08:26;9.30;99.90
67890;DHT22;54685;52.082;5.426;2023-04-24T01:10:54;9.30;99.90
67890;DHT22;54685;52.082;5.426;2023-04-24T01:13:21;9.20;99.90
67890;DHT22;54685;52.082;5.426;2023-04-24T01:15:49;9.20;99.90
67890;DHT22;54685;52.082;5.426;2023-04-24T01:18:16;9.20;99.90
67890;DHT22;54685;52.082;5.426;2023-04-24T01:20:44;9.20;99.90
67890;DHT22;54685;52.082;5.426;2023-04-24T01:23:13;9.30;99.90
67890;DHT22;54685;52.082;5.426;2023-04-24T01:25:40;9.20;99.90
67890;DHT22;54685;52.082;5.426;2023-04-24T01:28:07;9.20;99.90
67890;DHT22;54685;52.082;5.426;2023-04-24T01:30:34;9.30;99.90
67890;DHT22;54685;52.082;5.426;2023-04-24T01:33:02;9.30;99.90
67890;DHT22;54685;52.082;5.426;2023-04-24T01:35:29;9.30;99.90
67890;DHT22;54685;52.082;5.426;2023-04-24T01:37:56;9.30;99.90
67890;DHT22;54685;52.082;5.426;2023-04-24T01:40:23;9.30;99.90
67890;DHT22;54685;52.082;5.426;2023-04-24T01:42:51;9.40;99.90
67890;DHT22;54685;52.082;5.426;2023-04-24T01:45:18;9.40;99.90
67890;DHT22;54685;52.082;5.426;2023-04-24T01:47:45;9.30;99.90
67890;DHT22;54685;52.082;5.426;2023-04-24T01:50:13;9.30;99.90
67890;DHT22;54685;52.082;5.426;2023-04-24T01:52:41;9.40;99.90
67890;DHT22;54685;52.082;5.426;2023-04-24T01:55:09;9.40;99.90
67890;DHT22;54685;52.082;5.426;2023-04-24T01:57:37;9.40;99.90
67890;DHT22;54685;52.082;5.426;2023-04-24T02:00:05;9.40;99.90
67890;DHT22;54685;52.082;5.426;2023-04-24T02:02:40;9.40;99.90
67890;DHT22;54685;52.082;5.426;2023-04-24T02:05:08;9.40;99.90
67890;DHT22;54685;52.082;5.426;2023-04-24T02:07:36;9.40;99.90
67890;DHT22;54685;52.082;5.426;2023-04-24T02:10:04;9.40;99.90
67890;DHT22;54685;52.082;5.426;2023-04-24T02:12:31;9.40;99.90
67890;DHT22;54685;52.082;5.426;2023-04-24T02:14:58;9.40;99.90
67890;DHT22;54685;52.082;5.426;2023-04-24T02:17:25;9.40;99.90
67890;DHT22;54685;52.082;5.426;2023-04-24T02:19:52;9.40;99.90
67890;DHT22;54685;52.082;5.426;2023-04-24T02:22:19;9.40;99.90
67890;DHT22;54685;52.082;5.426;2023-04-24T02:24:47;9.30;99.90
67890;DHT22;54685;52.082;5.426;2023-04-24T02:27:15;9.40;99.90
67890;DHT22;54685;52.082;5.426;2023-04-24T02:29:42;9.30;99.90
67890;DHT22;54685;52.082;5.426;2023-04-24T02:32:09;9.30;99.90
67890;DHT22;54685;52.082;5.426;2023-04-24T02:34:39;9.40;99.90
67890;DHT22;54685;52.082;5.426;2023-04-24T02:37:06;9.40;99.90
67890;DHT22;54685;52.082;5.426;2023-04-24T02:39:33;9.40;99.90
67890;DHT22;54685;52.082;5.426;2023-04-24T02:42:00;9.40;99.90
67890;DHT22;54685;52.082;5.426;2023-04-24T02:44:29;9.40;99.90
67890;DHT22;54685;52.082;5.426;2023-04-24T02:46:56;9.40;99.90
67890;DHT22;54685;52.082;5.426;2023-04-24T02:49:23;9.40;99.90
67890;DHT22;54685;52.082;5.426;2023-04-24T02:51:50;9.40;99.90
67890;DHT22;54685;52.082;5.426;2023-04-24T02:54:17;9.40;99.90
67890;DHT22;54685;52.082;5.426;2023-04-24T02:56:44;9.30;99.90
67890;DHT22;54685;52.082;5.426;2023-04-24T02:59:11;9.30;99.90
67890;DHT22;54685;52.082;5.426;2023-04-24T03:01:38;9.30;99.90
67890;DHT22;54685;52.082;5.426;2023-04-24T03:04:07;9.40;99.90
67890;DHT22;54685;52.082;5.426;2023-04-24T03:06:35;9.30;99.90
67890;DHT22;54685;52.082;5.426;2023-04-24T03:09:02;9.30;99.90
67890;DHT22;54685;52.082;5.426;2023-04-24T03:11:31;9.30;99.90
67890;DHT22;54685;52.082;5.426;2023-04-24T03:13:58;9.30;99.90
67890;DHT22;54685;52.082;5.426;2023-04-24T03:16:25;9.30;99.90
67890;DHT22;54685;52.082;5.426;2023-04-24T03:18:54;9.30;99.90
67890;DHT22;54685;52.082;5.426;2023-04-24T03:21:24;9.30;99.90
67890;DHT22;54685;52.082;5.426;2023-04-24T03:23:51;9.30;99.90
67890;DHT22;54685;52.082;5.426;2023-04-24T03:26:18;9.30;99.90
67890;DHT22;54685;52.082;5.426;2023-04-24T03:29:00;9.30;99.90
67890;DHT22;54685;52.082;5.426;2023-04-24T03:31:27;9.20;99.90
67890;DHT22;54685;52.082;5.426;2023-04-24T03:33:54;9.20;99.90
67890;DHT22;54685;52.082;5.426;2023-04-24T03:36:22;9.20;99.90
67890;DHT22;54685;52.082;5.426;2023-04-24T03:38:49;9.20;99.90
67890;DHT22;54685;52.082;5.426;2023-04-24T03:41:23;9.20;99.90
67890;DHT22;54685;52.082;5.426;2023-04-24T03:43:57;9.20;99.90
67890;DHT22;54685;52.082;5.426;2023-04-24T03:46:24;9.20;99.90
67890;DHT22;54685;52.082;5.426;2023-04-24T03:48:56;9.20;99.90
67890;DHT22;54685;52.082;5.426;2023-04-24T03:51:28;9.30;99.90
67890;DHT22;54685;52.082;5.426;2023-04-24T03:54:05;9.30;99.90
67890;DHT22;54685;52.082;5.426;2023-04-24T03:56:35;9.30;99.90
67890;DHT22;54685;52.082;5.426;2023-04-24T03:59:03;9.30;99.90
67890;DHT22;54685;52.082;5.426;2023-04-24T04:01:31;9.30;99.90
67890;DHT22;54685;52.082;5.426;2023-04-24T04:04:08;9.30;99.90
67890;DHT22;54685;52.082;5.426;2023-04-24T04:06:36;9.30;99.90
67890;DHT22;54685;52.082;5.426;2023-04-24T04:09:04;9.30;99.90
67890;DHT22;54685;52.082;5.426;2023-04-24T04:11:31;9.20;99.90
67890;DHT22;54685;52.082;5.426;2023-04-24T04:13:58;9.20;99.90
67890;DHT22;54685;52.082;5.426;2023-04-24T04:16:26;9.20;99.90
67890;DHT22;54685;52.082;5.426;2023-04-24T04:18:59;9.20;99.90
67890;DHT22;54685;52.082;5.426;2023-04-24T04:21:26;9.20;99.90
67890;DHT22;54685;52.082;5.426;2023-04-24T04:24:01;9.20;99.90
67890;DHT22;54685;52.082;5.426;2023-04-24T04:26:33;9.20;99.90
67890;DHT22;54685;52.082;5.426;2023-04-24T04:29:04;9.20;99.90
67890;DHT22;54685;52.082;5.426;2023-04-24T04:31:32;9.30;99.90
67890;DHT22;54685;52.082;5.426;2023-04-24T04:34:04;9.30;99.90
67890;DHT22;54685;52.082;5.426;2023-04-24T04:36:34;9.30;99.90
67890;DHT22;54685;52.082;5.426;2023-04-24T04:39:22;9.20;99.90
67890;DHT22;54685;52.082;5.426;2023-04-24T04:41:55;9.30;99.90
67890;DHT22;54685;52.082;5.426;2023-04-24T04:44:26;9.20;99.90
67890;DHT22;54685;52.082;5.426;2023-04-24T04:46:57;9.30;99.90
67890;DHT22;54685;52.082;5.426;2023-04-24T04:49:29;9.30;99.90
67890;DHT22;54685;52.082;5.426;2023-04-24T04:51:57;9.30;99.90
67890;DHT22;54685;52.082;5.426;2023-04-24T04:54:26;9.30;99.90
67890;DHT22;54685;52.082;5.426;2023-04-24T04:56:54;9.30;99.90
67890;DHT22;54685;52.082;5.426;2023-04-24T04:59:21;9.30;99.90
67890;DHT22;54685;52.082;5.426;2023-04-24T05:01:52;9.30;99.90
67890;DHT22;54685;52.082;5.426;2023-04-24T05:04:20;9.30;99.90
67890;DHT22;54685;52.082;5.426;2023-04-24T05:06:47;9.40;99.90
67890;DHT22;54685;52.082;5.426;2023-04-24T05:09:14;9.40;99.90
67890;DHT22;54685;52.082;5.426;2023-04-24T05:11:57;9.40;99.90
67890;DHT22;54685;52.082;5.426;2023-04-24T05:14:25;9.40;99.90
67890;DHT22;54685;52.082;5.426;2023-04-24T05:16:52;9.40;99.90
67890;DHT22;54685;52.082;5.426;2023-04-24T05:19:22;9.40;99.90
67890;DHT22;54685;52.082;5.426;2023-04-24T05:21:49;9.40;99.90
67890;DHT22;54685;52.082;5.426;2023-04-24T05:24:17;9.40;99.90
67890;DHT22;54685;52.082;5.426;2023-04-24T05:27:03;9.40;99.90
67890;DHT22;54685;52.082;5.426;2023-04-24T05:29:37;9.40;99.90
67890;DHT22;54685;52.082;5.426;2023-04-24T05:32:05;9.40;99.90
67890;DHT22;54685;52.082;5.426;2023-04-24T05:34:33;9.40;99.90
67890;DHT22;54685;52.082;5.426;2023-04-24T05:37:00;9.40;99.90
67890;DHT22;54685;52.082;5.426;2023-04-24T05:39:27;9.50;99.90
67890;DHT22;54685;52.082;5.426;2023-04-24T05:41:55;9.50;99.90
67890;DHT22;54685;52.082;5.426;2023-04-24T05:44:25;9.40;99.90
67890;DHT22;54685;52.082;5.426;2023-04-24T05:46:52;9.40;99.90
67890;DHT22;54685;52.082;5.426;2023-04-24T05:49:19;9.40;99.90
67890;DHT22;54685;52.082;5.426;2023-04-24T05:51:47;9.40;99.90
67890;DHT22;54685;52.082;5.426;2023-04-24T05:54:15;9.40;99.90
67890;DHT22;54685;52.082;5.426;2023-04-24T05:56:43;9.40;99.90
67890;DHT22;54685;52.082;5.426;2023-04-24T05:59:13;9.30;99.90
67890;DHT22;54685;52.082;5.426;2023-04-24T06:01:40;9.30;99.90
67890;DHT22;54685;52.082;5.426;2023-04-24T06:04:13;9.30;99.90
67890;DHT22;54685;52.082;5.426;2023-04-24T06:06:40;9.30;99.90
67890;DHT22;54685;52.082;5.426;2023-04-24T06:09:08;9.30;99.90
67890;DHT22;54685;52.082;5.426;2023-04-24T06:11:35;9.20;99.90
67890;DHT22;54685;52.082;5.426;2023-04-24T06:14:03;9.20;99.90
67890;DHT22;54685;52.082;5.426;2023-04-24T06:16:41;9.20;99.90
67890;DHT22;54685;52.082;5.426;2023-04-24T06:19:26;9.20;99.90
67890;DHT22;54685;52.082;5.426;2023-04-24T06:21:54;9.10;99.90
67890;DHT22;54685;52.082;5.426;2023-04-24T06:24:21;9.10;99.90
67890;DHT22;54685;52.082;5.426;2023-04-24T06:26:48;9.10;99.90
67890;DHT22;54685;52.082;5.426;2023-04-24T06:29:15;9.10;99.90
67890;DHT22;54685;52.082;5.426;2023-04-24T06:31:42;9.00;99.90
67890;DHT22;54685;52.082;5.426;2023-04-24T06:34:09;9.00;99.90
67890;DHT22;54685;52.082;5.426;2023-04-24T06:36:37;9.00;99.90
67890;DHT22;54685;52.082;5.426;2023-04-24T06:39:04;9.00;99.90
67890;DHT22;54685;52.082;5.426;2023-04-24T06:41:31;9.00;99.90
67890;DHT22;54685;52.082;5.426;2023-04-24T06:43:58;8.90;99.90
67890;DHT22;54685;52.082;5.426;2023-04-24T06:46:25;8.90;99.90
67890;DHT22;54685;52.082;5.426;2023-04-24T06:48:54;9.00;99.90
67890;DHT22;54685;52.082;5.426;2023-04-24T06:51:25;9.00;99.90
67890;DHT22;54685;52.082;5.426;2023-04-24T06:53:53;9.00;99.90
67890;DHT22;54685;52.082;5.426;2023-04-24T06:56:20;9.00;99.90
67890;DHT22;54685;52.082;5.426;2023-04-24T06:58:50;8.90;99.90
67890;DHT22;54685;52.082;5.426;2023-04-24T07:01:18;9.00;99.90
67890;DHT22;54685;52.082;5.426;2023-04-24T07:03:45;8.90;99.90
67890;DHT22;54685;52.082;5.426;2023-04-24T07:06:12;8.90;99.90
67890;DHT22;54685;52.082;5.426;2023-04-24T07:08:39;8.90;99.90
67890;DHT22;54685;52.082;5.426;2023-04-24T07:11:08;8.90;99.90
67890;DHT22;54685;52.082;5.426;2023-04-24T07:13:35;8.90;99.90
67890;DHT22;54685;52.082;5.426;2023-04-24T07:16:02;8.90;99.90
67890;DHT22;54685;52.082;5.426;2023-04-24T07:18:29;8.90;99.90
67890;DHT22;54685;52.082;5.426;2023-04-24T07:20:57;8.90;99.90
67890;DHT22;54685;52.082;5.426;2023-04-24T07:23:24;8.90;99.90
67890;DHT22;54685;52.082;5.426;2023-04-24T07:25:51;8.90;99.90
67890;DHT22;54685;52.082;5.426;2023-04-24T07:28:18;8.80;99.90
67890;DHT22;54685;52.082;5.426;2023-04-24T07:30:45;8.80;99.90
67890;DHT22;54685;52.082;5.426;2023-04-24T07:33:12;8.80;99.90
67890;DHT22;54685;52.082;5.426;2023-04-24T07:35:40;8.80;99.90
67890;DHT22;54685;52.082;5.426;2023-04-24T07:38:07;8.70;99.90
67890;DHT22;54685;52.082;5.426;2023-04-24T07:40:34;8.80;99.90
67890;DHT22;54685;52.082;5.426;2023-04-24T07:43:01;8.80;99.90
67890;DHT22;54685;52.082;5.426;2023-04-24T07:45:28;8.80;99.90
67890;DHT22;54685;52.082;5.426;2023-04-24T07:47:56;8.80;99.90
67890;DHT22;54685;52.082;5.426;2023-04-24T07:50:24;8.80;99.90
67890;DHT22;54685;52.082;5.426;2023-04-24T07:52:51;8.80;99.90
67890;DHT22;54685;52.082;5.426;2023-04-24T07:55:18;8.70;99.90
67890;DHT22;54685;52.082;5.426;2023-04-24T07:57:48;8.70;99.90
67890;DHT22;54685;52.082;5.426;2023-04-24T08:00:15;8.70;99.90
67890;DHT22;54685;52.082;5.426;2023-04-24T08:02:42;8.70;99.90
67890;DHT22;54685;52.082;5.426;2023-04-24T08:05:09;8.70;99.90
67890;DHT22;54685;52.082;5.426;2023-04-24T08:07:37;8.70;99.90
67890;DHT22;54685;52.082;5.426;2023-04-24T08:10:04;8.70;99.90
67890;DHT22;54685;52.082;5.426;2023-04-24T08:12:31;8.80;99.90
67890;DHT22;54685;52.082;5.426;2023-04-24T08:14:58;8.80;99.90
67890;DHT22;54685;52.082;5.426;2023-04-24T08:17:25;8.80;99.90
67890;DHT22;54685;52.082;5.426;2023-04-24T08:19:53;8.80;99.90
67890;DHT22;54685;52.082;5.426;2023-04-24T08:22:30;8.90;99.90
67890;DHT22;54685;52.082;5.426;2023-04-24T08:24:59;8.90;99.90
67890;DHT22;54685;52.082;5.426;2023-04-24T08:27:27;8.80;99.90
67890;DHT22;54685;52.082;5.426;2023-04-24T08:29:54;8.80;99.90
67890;DHT22;54685;52.082;5.426;2023-04-24T08:32:21;8.70;99.90
67890;DHT22;54685;52.082;5.426;2023-04-24T08:34:48;8.80;99.90
67890;DHT22;54685;52.082;5.426;2023-04-24T08:37:15;8.80;99.90
67890;DHT22;54685;52.082;5.426;2023-04-24T08:39:42;8.70;99.90
67890;DHT22;54685;52.082;5.426;2023-04-24T08:42:11;8.70;99.90
67890;DHT22;54685;52.082;5.426;2023-04-24T08:44:38;8.70;99.90
67890;DHT22;54685;52.082;5.426;2023-04-24T08:47:07;8.70;99.90
67890;DHT22;54685;52.082;5.426;2023-04-24T08:49:36;8.70;99.90
67890;DHT22;54685;52.082;5.426;2023-04-24T08:52:05;8.70;99.90
67890;DHT22;54685;52.082;5.426;2023-04-24T08:54:34;8.70;99.90
67890;DHT22;54685;52.082;5.426;2023-04-24T08:57:03;8.80;99.90
67890;DHT22;54685;52.082;5.426;2023-04-24T08:59:31;8.80;99.90
67890;DHT22;54685;52.082;5.426;2023-04-24T09:01:59;8.90;99.90
67890;DHT22;54685;52.082;5.426;2023-04-24T09:04:27;9.00;99.90
67890;DHT22;54685;52.082;5.426;2023-04-24T09:06:56;9.00;99.90
67890;DHT22;54685;52.082;5.426;2023-04-24T09:09:30;9.00;99.90
67890;DHT22;54685;52.082;5.426;2023-04-24T09:11:58;9.00;99.90
67890;DHT22;54685;52.082;5.426;2023-04-24T09:14:26;9.10;99.90
67890;DHT22;54685;52.082;5.426;2023-04-24T09:16:54;9.00;99.90
67890;DHT22;54685;52.082;5.426;2023-04-24T09:19:21;9.10;99.90
67890;DHT22;54685;52.082;5.426;2023-04-24T09:21:49;9.10;99.90
67890;DHT22;54685;52.082;5.426;2023-04-24T09:24:20;9.20;99.90
67890;DHT22;54685;52.082;5.426;2023-04-24T09:26:58;9.30;99.90
67890;DHT22;54685;52.082;5.426;2023-04-24T09:29:25;9.30;99.90
67890;DHT22;54685;52.082;5.426;2023-04-24T09:31:52;9.40;99.90
67890;DHT22;54685;52.082;5.426;2023-04-24T09:34:25;9.50;99.90
67890;DHT22;54685;52.082;5.426;2023-04-24T09:36:52;9.60;99.90
67890;DHT22;54685;52.082;5.426;2023-04-24T09:39:20;9.70;99.90
67890;DHT22;54685;52.082;5.426;2023-04-24T09:41:51;9.80;99.90
67890;DHT22;54685;52.082;5.426;2023-04-24T09:44:22;9.90;99.90
67890;DHT22;54685;52.082;5.426;2023-04-24T09:46:59;10.00;99.90
67890;DHT22;54685;52.082;5.426;2023-04-24T09:49:28;10.10;99.90
67890;DHT22;54685;52.082;5.426;2023-04-24T09:52:11;10.20;99.90
67890;DHT22;54685;52.082;5.426;2023-04-24T09:54:39;10.20;99.90
67890;DHT22;54685;52.082;5.426;2023-04-24T09:57:09;10.20;99.90
67890;DHT22;54685;52.082;5.426;2023-04-24T09:59:42;10.20;99.90
67890;DHT22;54685;52.082;5.426;2023-04-24T10:02:18;10.20;99.90
67890;DHT22;54685;52.082;5.426;2023-04-24T10:04:56;10.10;99.90
67890;DHT22;54685;52.082;5.426;2023-04-24T10:07:26;10.10;99.90
67890;DHT22;54685;52.082;5.426;2023-04-24T10:09:54;10.00;99.90
67890;DHT22;54685;52.082;5.426;2023-04-24T10:12:23;9.90;99.90
67890;DHT22;54685;52.082;5.426;2023-04-24T10:14:50;10.00;99.90
67890;DHT22;54685;52.082;5.426;2023-04-24T10:17:18;10.00;99.90
67890;DHT22;54685;52.082;5.426;2023-04-24T10:19:47;10.00;99.90
67890;DHT22;54685;52.082;5.426;2023-04-24T10:22:15;10.10;99.90
67890;DHT22;54685;52.082;5.426;2023-04-24T10:24:45;10.10;99.90
67890;DHT22;54685;52.082;5.426;2023-04-24T10:27:14;10.10;99.90
67890;DHT22;54685;52.082;5.426;2023-04-24T10:29:45;10.00;99.90
67890;DHT22;54685;52.082;5.426;2023-04-24T10:32:15;10.00;99.90
67890;DHT22;54685;52.082;5.426;2023-04-24T10:34:41;9.80;99.90
67890;DHT22;54685;52.082;5.426;2023-04-24T10:37:08;9.80;99.90
67890;DHT22;54685;52.082;5.426;2023-04-24T10:39:35;9.80;99.90
67890;DHT22;54685;52.082;5.426;2023-04-24T10:42:17;9.80;99.90
67890;DHT22;54685;52.082;5.426;2023-04-24T10:44:47;9.90;99.90
67890;DHT22;54685;52.082;5.426;2023-04-24T10:47:15;10.00;99.90
67890;DHT22;54685;52.082;5.426;2023-04-24T10:49:45;10.10;99.90
67890;DHT22;54685;52.082;5.426;2023-04-24T10:52:12;10.20;99.90
67890;DHT22;54685;52.082;5.426;2023-04-24T10:54:44;10.20;99.90
67890;DHT22;54685;52.082;5.426;2023-04-24T11:00:13;10.50;99.90
67890;DHT22;54685;52.082;5.426;2023-04-24T11:02:40;10.50;99.90
67890;DHT22;54685;52.082;5.426;2023-04-24T11:05:16;10.60;99.90
67890;DHT22;54685;52.082;5.426;2023-04-24T11:10:47;10.70;99.90
67890;DHT22;54685;52.082;5.426;2023-04-24T11:13:16;10.80;99.90
67890;DHT22;54685;52.082;5.426;2023-04-24T11:15:43;10.80;99.90
67890;DHT22;54685;52.082;5.426;2023-04-24T11:18:14;10.80;99.90
67890;DHT22;54685;52.082;5.426;2023-04-24T11:20:44;10.70;99.90
67890;DHT22;54685;52.082;5.426;2023-04-24T11:23:12;10.60;99.90
67890;DHT22;54685;52.082;5.426;2023-04-24T11:25:40;10.50;99.90
67890;DHT22;54685;52.082;5.426;2023-04-24T11:28:14;10.30;99.90
67890;DHT22;54685;52.082;5.426;2023-04-24T11:30:43;10.10;99.90
67890;DHT22;54685;52.082;5.426;2023-04-24T11:33:10;9.90;99.90
67890;DHT22;54685;52.082;5.426;2023-04-24T11:35:39;9.80;99.90
67890;DHT22;54685;52.082;5.426;2023-04-24T11:38:07;9.80;99.90
67890;DHT22;54685;52.082;5.426;2023-04-24T11:40:49;9.90;99.90
67890;DHT22;54685;52.082;5.426;2023-04-24T11:43:17;10.00;99.90
67890;DHT22;54685;52.082;5.426;2023-04-24T11:45:49;10.10;99.90
67890;DHT22;54685;52.082;5.426;2023-04-24T11:48:20;10.30;99.90
67890;DHT22;54685;52.082;5.426;2023-04-24T11:50:49;10.50;99.90
67890;DHT22;54685;52.082;5.426;2023-04-24T11:53:19;10.50;99.90
67890;DHT22;54685;52.082;5.426;2023-04-24T11:55:48;10.80;99.90
67890;DHT22;54685;52.082;5.426;2023-04-24T11:58:20;11.10;99.90
67890;DHT22;54685;52.082;5.426;2023-04-24T12:00:56;11.30;99.90
67890;DHT22;54685;52.082;5.426;2023-04-24T12:03:23;11.60;99.90
67890;DHT22;54685;52.082;5.426;2023-04-24T12:05:50;11.90;99.90
67890;DHT22;54685;52.082;5.426;2023-04-24T12:08:30;12.10;99.90
67890;DHT22;54685;52.082;5.426;2023-04-24T12:11:00;12.10;99.90
67890;DHT22;54685;52.082;5.426;2023-04-24T12:13:34;12.30;99.90
67890;DHT22;54685;52.082;5.426;2023-04-24T12:16:03;12.20;99.90
67890;DHT22;54685;52.082;5.426;2023-04-24T12:18:31;12.10;99.90
67890;DHT22;54685;52.082;5.426;2023-04-24T12:21:20;12.00;99.90
67890;DHT22;54685;52.082;5.426;2023-04-24T12:23:49;11.80;99.90
67890;DHT22;54685;52.082;5.426;2023-04-24T12:26:18;11.50;99.90
67890;DHT22;54685;52.082;5.426;2023-04-24T12:28:49;11.40;99.90
67890;DHT22;54685;52.082;5.426;2023-04-24T12:31:16;11.50;99.90
67890;DHT22;54685;52.082;5.426;2023-04-24T12:33:43;11.50;99.90
67890;DHT22;54685;52.082;5.426;2023-04-24T12:36:11;11.60;99.90
67890;DHT22;54685;52.082;5.426;2023-04-24T12:38:39;11.80;99.90
67890;DHT22;54685;52.082;5.426;2023-04-24T12:41:13;12.00;99.90
67890;DHT22;54685;52.082;5.426;2023-04-24T12:43:53;12.30;99.90
67890;DHT22;54685;52.082;5.426;2023-04-24T12:46:21;12.20;99.90
67890;DHT22;54685;52.082;5.426;2023-04-24T12:48:48;12.00;99.90
67890;DHT22;54685;52.082;5.426;2023-04-24T12:51:15;11.60;99.90
67890;DHT22;54685;52.082;5.426;2023-04-24T12:53:42;11.40;99.90
67890;DHT22;54685;52.082;5.426;2023-04-24T12:56:09;11.30;99.90
67890;DHT22;54685;52.082;5.426;2023-04-24T12:58:37;11.30;99.90
67890;DHT22;54685;52.082;5.426;2023-04-24T13:01:04;11.30;99.90
67890;DHT22;54685;52.082;5.426;2023-04-24T13:03:31;11.20;99.90
67890;DHT22;54685;52.082;5.426;2023-04-24T13:05:59;11.20;99.90
67890;DHT22;54685;52.082;5.426;2023-04-24T13:08:26;11.10;99.90
67890;DHT22;54685;52.082;5.426;2023-04-24T13:10:53;10.90;99.90
67890;DHT22;54685;52.082;5.426;2023-04-24T13:13:21;10.90;99.90
67890;DHT22;54685;52.082;5.426;2023-04-24T13:15:58;10.80;99.90
67890;DHT22;54685;52.082;5.426;2023-04-24T13:18:26;10.60;99.90
67890;DHT22;54685;52.082;5.426;2023-04-24T13:20:53;10.50;99.90
67890;DHT22;54685;52.082;5.426;2023-04-24T13:23:20;10.40;99.90
67890;DHT22;54685;52.082;5.426;2023-04-24T13:25:55;10.30;99.90
67890;DHT22;54685;52.082;5.426;2023-04-24T13:28:25;10.70;99.90
67890;DHT22;54685;52.082;5.426;2023-04-24T13:30:52;11.30;99.90
67890;DHT22;54685;52.082;5.426;2023-04-24T13:33:19;12.00;99.90
67890;DHT22;54685;52.082;5.426;2023-04-24T13:35:46;12.80;99.90
67890;DHT22;54685;52.082;5.426;2023-04-24T13:38:13;12.90;99.90
67890;DHT22;54685;52.082;5.426;2023-04-24T13:40:40;12.70;99.00
67890;DHT22;54685;52.082;5.426;2023-04-24T13:43:07;12.30;99.90
67890;DHT22;54685;52.082;5.426;2023-04-24T13:45:33;12.00;96.80
67890;DHT22;54685;52.082;5.426;2023-04-24T13:48:00;11.80;99.90
67890;DHT22;54685;52.082;5.426;2023-04-24T13:50:32;11.70;99.90
67890;DHT22;54685;52.082;5.426;2023-04-24T13:52:59;11.60;99.90
67890;DHT22;54685;52.082;5.426;2023-04-24T13:55:29;11.90;99.90
67890;DHT22;54685;52.082;5.426;2023-04-24T13:57:56;11.90;99.40
67890;DHT22;54685;52.082;5.426;2023-04-24T14:00:22;11.80;99.70
67890;DHT22;54685;52.082;5.426;2023-04-24T14:02:50;11.80;99.90
67890;DHT22;54685;52.082;5.426;2023-04-24T14:05:18;11.90;99.90
67890;DHT22;54685;52.082;5.426;2023-04-24T14:07:45;12.30;97.90
67890;DHT22;54685;52.082;5.426;2023-04-24T14:10:11;12.50;92.30
67890;DHT22;54685;52.082;5.426;2023-04-24T14:12:38;12.50;90.80
67890;DHT22;54685;52.082;5.426;2023-04-24T14:15:06;12.20;91.20
67890;DHT22;54685;52.082;5.426;2023-04-24T14:17:33;12.20;91.70
67890;DHT22;54685;52.082;5.426;2023-04-24T14:20:00;11.90;88.90
67890;DHT22;54685;52.082;5.426;2023-04-24T14:22:28;11.70;91.70
67890;DHT22;54685;52.082;5.426;2023-04-24T14:24:55;11.70;93.40
67890;DHT22;54685;52.082;5.426;2023-04-24T14:27:22;11.60;95.30
67890;DHT22;54685;52.082;5.426;2023-04-24T14:29:49;11.50;95.60
67890;DHT22;54685;52.082;5.426;2023-04-24T14:32:16;11.50;97.70
67890;DHT22;54685;52.082;5.426;2023-04-24T14:34:43;11.40;98.30
67890;DHT22;54685;52.082;5.426;2023-04-24T14:37:10;11.40;99.90
67890;DHT22;54685;52.082;5.426;2023-04-24T14:39:37;11.40;99.90
67890;DHT22;54685;52.082;5.426;2023-04-24T14:42:04;11.60;99.90
67890;DHT22;54685;52.082;5.426;2023-04-24T14:44:32;12.50;99.20
67890;DHT22;54685;52.082;5.426;2023-04-24T14:46:59;13.40;91.10
67890;DHT22;54685;52.082;5.426;2023-04-24T14:49:26;13.80;83.30
67890;DHT22;54685;52.082;5.426;2023-04-24T14:51:53;13.50;82.20
67890;DHT22;54685;52.082;5.426;2023-04-24T14:54:20;13.30;88.40
67890;DHT22;54685;52.082;5.426;2023-04-24T14:56:50;13.00;85.10
67890;DHT22;54685;52.082;5.426;2023-04-24T14:59:31;12.70;84.50
67890;DHT22;54685;52.082;5.426;2023-04-24T15:02:07;12.70;90.30
67890;DHT22;54685;52.082;5.426;2023-04-24T15:04:46;12.80;87.00
67890;DHT22;54685;52.082;5.426;2023-04-24T15:07:13;12.80;90.70
67890;DHT22;54685;52.082;5.426;2023-04-24T15:09:40;12.90;91.20
67890;DHT22;54685;52.082;5.426;2023-04-24T15:12:08;12.90;87.60
67890;DHT22;54685;52.082;5.426;2023-04-24T15:14:35;12.50;88.70
67890;DHT22;54685;52.082;5.426;2023-04-24T15:17:02;12.30;91.70
67890;DHT22;54685;52.082;5.426;2023-04-24T15:19:29;12.10;92.60
67890;DHT22;54685;52.082;5.426;2023-04-24T15:22:02;11.90;98.40
67890;DHT22;54685;52.082;5.426;2023-04-24T15:24:29;11.50;99.90
67890;DHT22;54685;52.082;5.426;2023-04-24T15:26:56;11.10;99.90
67890;DHT22;54685;52.082;5.426;2023-04-24T15:29:27;10.90;99.90
67890;DHT22;54685;52.082;5.426;2023-04-24T15:31:54;10.80;99.90
67890;DHT22;54685;52.082;5.426;2023-04-24T15:34:21;10.80;99.90
67890;DHT22;54685;52.082;5.426;2023-04-24T15:36:48;10.80;99.90
67890;DHT22;54685;52.082;5.426;2023-04-24T15:39:15;10.60;99.90
67890;DHT22;54685;52.082;5.426;2023-04-24T15:41:45;10.60;99.90
67890;DHT22;54685;52.082;5.426;2023-04-24T15:44:12;10.70;99.90
67890;DHT22;54685;52.082;5.426;2023-04-24T15:46:40;10.90;99.90
67890;DHT22;54685;52.082;5.426;2023-04-24T15:49:10;11.00;99.90
67890;DHT22;54685;52.082;5.426;2023-04-24T15:51:37;11.00;99.90
67890;DHT22;54685;52.082;5.426;2023-04-24T15:54:04;11.10;99.90
67890;DHT22;54685;52.082;5.426;2023-04-24T15:56:31;11.10;99.90